sensor_id;sensor_type;location;lat;lon;timestamp;P1;durP1;ratioP1;P2;durP2;ratioP2
14080;SDS011;7116;52.152;5.392;2023-04-25T00:01:59;17.70;;;3.73;;
14080;SDS011;7116;52.152;5.392;2023-04-25T00:04:25;13.30;;;4.00;;
14080;SDS011;7116;52.152;5.392;2023-04-25T00:06:51;15.70;;;4.50;;
14080;SDS011;7116;52.152;5.392;2023-04-25T00:09:17;11.93;;;4.50;;
14080;SDS011;7116;52.152;5.392;2023-04-25T00:11:42;19.90;;;4.67;;
14080;SDS011;7116;52.152;5.392;2023-04-25T00:14:07;12.47;;;4.97;;
14080;SDS011;7116;52.152;5.392;2023-04-25T00:16:33;14.93;;;4.60;;
14080;SDS011;7116;52.152;5.392;2023-04-25T00:19:00;12.50;;;4.60;;
14080;SDS011;7116;52.152;5.392;2023-04-25T00:21:26;14.10;;;4.18;;
14080;SDS011;7116;52.152;5.392;2023-04-25T00:23:55;12.70;;;4.30;;
14080;SDS011;7116;52.152;5.392;2023-04-25T00:26:20;11.27;;;3.70;;
14080;SDS011;7116;52.152;5.392;2023-04-25T00:28:46;13.38;;;4.97;;
14080;SDS011;7116;52.152;5.392;2023-04-25T00:31:11;12.50;;;4.50;;
14080;SDS011;7116;52.152;5.392;2023-04-25T00:33:39;11.40;;;3.88;;
14080;SDS011;7116;52.152;5.392;2023-04-25T00:36:04;14.40;;;3.70;;
14080;SDS011;7116;52.152;5.392;2023-04-25T00:38:29;17.50;;;4.40;;
14080;SDS011;7116;52.152;5.392;2023-04-25T00:40:55;14.40;;;4.37;;
14080;SDS011;7116;52.152;5.392;2023-04-25T00:43:20;16.17;;;3.97;;
14080;SDS011;7116;52.152;5.392;2023-04-25T00:45:46;13.60;;;4.05;;
14080;SDS011;7116;52.152;5.392;2023-04-25T00:48:12;15.70;;;3.83;;
14080;SDS011;7116;52.152;5.392;2023-04-25T00:50:38;14.63;;;4.38;;
14080;SDS011;7116;52.152;5.392;2023-04-25T00:53:03;13.07;;;4.20;;
14080;SDS011;7116;52.152;5.392;2023-04-25T00:55:29;10.67;;;4.00;;
14080;SDS011;7116;52.152;5.392;2023-04-25T00:57:56;9.82;;;4.18;;
14080;SDS011;7116;52.152;5.392;2023-04-25T01:00:24;10.77;;;3.55;;
14080;SDS011;7116;52.152;5.392;2023-04-25T01:02:52;10.43;;;3.77;;
14080;SDS011;7116;52.152;5.392;2023-04-25T01:05:17;10.02;;;3.55;;
14080;SDS011;7116;52.152;5.392;2023-04-25T01:07:44;14.57;;;4.57;;
14080;SDS011;7116;52.152;5.392;2023-04-25T01:10:10;10.52;;;3.67;;
14080;SDS011;7116;52.152;5.392;2023-04-25T01:12:35;13.67;;;4.50;;
14080;SDS011;7116;52.152;5.392;2023-04-25T01:15:00;13.40;;;4.37;;
14080;SDS011;7116;52.152;5.392;2023-04-25T01:17:25;12.37;;;3.67;;
14080;SDS011;7116;52.152;5.392;2023-04-25T01:19:52;14.45;;;4.63;;
14080;SDS011;7116;52.152;5.392;2023-04-25T01:22:17;11.93;;;3.90;;
14080;SDS011;7116;52.152;5.392;2023-04-25T01:24:43;15.85;;;4.32;;
14080;SDS011;7116;52.152;5.392;2023-04-25T01:27:08;15.88;;;4.05;;
14080;SDS011;7116;52.152;5.392;2023-04-25T01:29:33;13.90;;;4.53;;
14080;SDS011;7116;52.152;5.392;2023-04-25T01:31:59;16.92;;;4.47;;
14080;SDS011;7116;52.152;5.392;2023-04-25T01:34:25;15.25;;;4.57;;
14080;SDS011;7116;52.152;5.392;2023-04-25T01:36:50;11.67;;;4.50;;
14080;SDS011;7116;52.152;5.392;2023-04-25T01:39:16;13.43;;;4.38;;
14080;SDS011;7116;52.152;5.392;2023-04-25T01:41:42;10.60;;;4.30;;
14080;SDS011;7116;52.152;5.392;2023-04-25T01:44:07;14.40;;;4.60;;
14080;SDS011;7116;52.152;5.392;2023-04-25T01:46:33;11.83;;;4.00;;
14080;SDS011;7116;52.152;5.392;2023-04-25T01:48:58;18.87;;;4.77;;
14080;SDS011;7116;52.152;5.392;2023-04-25T01:51:23;13.77;;;4.13;;
14080;SDS011;7116;52.152;5.392;2023-04-25T01:53:49;12.97;;;4.40;;
14080;SDS011;7116;52.152;5.392;2023-04-25T01:56:14;13.15;;;3.90;;
14080;SDS011;7116;52.152;5.392;2023-04-25T01:58:40;15.17;;;4.40;;
14080;SDS011;7116;52.152;5.392;2023-04-25T02:01:05;12.87;;;4.30;;
14080;SDS011;7116;52.152;5.392;2023-04-25T02:03:31;9.43;;;3.60;;
14080;SDS011;7116;52.152;5.392;2023-04-25T02:05:56;13.25;;;4.35;;
14080;SDS011;7116;52.152;5.392;2023-04-25T02:08:21;9.80;;;3.80;;
14080;SDS011;7116;52.152;5.392;2023-04-25T02:10:47;13.03;;;4.73;;
14080;SDS011;7116;52.152;5.392;2023-04-25T02:13:12;13.33;;;4.30;;
14080;SDS011;7116;52.152;5.392;2023-04-25T02:15:37;11.10;;;4.03;;
14080;SDS011;7116;52.152;5.392;2023-04-25T02:18:02;19.60;;;4.47;;
14080;SDS011;7116;52.152;5.392;2023-04-25T02:20:28;15.23;;;3.87;;
14080;SDS011;7116;52.152;5.392;2023-04-25T02:22:53;16.45;;;4.78;;
14080;SDS011;7116;52.152;5.392;2023-04-25T02:25:18;12.80;;;4.28;;
14080;SDS011;7116;52.152;5.392;2023-04-25T02:27:45;12.25;;;3.85;;
14080;SDS011;7116;52.152;5.392;2023-04-25T02:30:10;12.00;;;3.80;;
14080;SDS011;7116;52.152;5.392;2023-04-25T02:32:36;17.23;;;4.60;;
14080;SDS011;7116;52.152;5.392;2023-04-25T02:35:01;14.07;;;3.20;;
14080;SDS011;7116;52.152;5.392;2023-04-25T02:37:32;9.25;;;3.53;;
14080;SDS011;7116;52.152;5.392;2023-04-25T02:39:57;15.05;;;4.57;;
14080;SDS011;7116;52.152;5.392;2023-04-25T02:42:22;12.87;;;4.20;;
14080;SDS011;7116;52.152;5.392;2023-04-25T02:44:47;9.80;;;3.63;;
14080;SDS011;7116;52.152;5.392;2023-04-25T02:47:13;12.70;;;3.53;;
14080;SDS011;7116;52.152;5.392;2023-04-25T02:49:38;18.50;;;4.87;;
14080;SDS011;7116;52.152;5.392;2023-04-25T02:52:03;15.57;;;4.00;;
14080;SDS011;7116;52.152;5.392;2023-04-25T02:54:41;13.38;;;4.38;;
14080;SDS011;7116;52.152;5.392;2023-04-25T02:57:09;13.65;;;3.92;;
14080;SDS011;7116;52.152;5.392;2023-04-25T02:59:45;11.17;;;4.13;;
14080;SDS011;7116;52.152;5.392;2023-04-25T03:02:12;16.17;;;4.10;;
14080;SDS011;7116;52.152;5.392;2023-04-25T03:04:55;17.23;;;4.20;;
14080;SDS011;7116;52.152;5.392;2023-04-25T03:13:23;11.55;;;4.32;;
14080;SDS011;7116;52.152;5.392;2023-04-25T03:19:04;11.68;;;4.45;;
14080;SDS011;7116;52.152;5.392;2023-04-25T03:21:30;10.95;;;3.92;;
14080;SDS011;7116;52.152;5.392;2023-04-25T03:23:56;15.00;;;4.25;;
14080;SDS011;7116;52.152;5.392;2023-04-25T03:26:24;14.98;;;3.97;;
14080;SDS011;7116;52.152;5.392;2023-04-25T03:29:01;15.80;;;4.60;;
14080;SDS011;7116;52.152;5.392;2023-04-25T03:31:29;11.93;;;4.80;;
14080;SDS011;7116;52.152;5.392;2023-04-25T03:33:54;17.47;;;4.70;;
14080;SDS011;7116;52.152;5.392;2023-04-25T03:36:19;16.75;;;4.30;;
14080;SDS011;7116;52.152;5.392;2023-04-25T03:38:44;9.23;;;4.25;;
14080;SDS011;7116;52.152;5.392;2023-04-25T03:41:10;14.25;;;4.13;;
14080;SDS011;7116;52.152;5.392;2023-04-25T03:43:35;9.77;;;3.57;;
14080;SDS011;7116;52.152;5.392;2023-04-25T03:46:00;10.23;;;3.33;;
14080;SDS011;7116;52.152;5.392;2023-04-25T03:48:26;15.00;;;3.93;;
14080;SDS011;7116;52.152;5.392;2023-04-25T03:50:51;15.80;;;4.53;;
14080;SDS011;7116;52.152;5.392;2023-04-25T03:53:16;14.63;;;3.90;;
14080;SDS011;7116;52.152;5.392;2023-04-25T03:55:41;14.83;;;4.80;;
14080;SDS011;7116;52.152;5.392;2023-04-25T03:58:07;14.20;;;4.03;;
14080;SDS011;7116;52.152;5.392;2023-04-25T04:00:33;10.65;;;3.83;;
14080;SDS011;7116;52.152;5.392;2023-04-25T04:02:58;12.37;;;3.97;;
14080;SDS011;7116;52.152;5.392;2023-04-25T04:05:24;15.60;;;4.00;;
14080;SDS011;7116;52.152;5.392;2023-04-25T04:07:49;10.67;;;4.50;;
14080;SDS011;7116;52.152;5.392;2023-04-25T04:10:15;12.75;;;3.90;;
14080;SDS011;7116;52.152;5.392;2023-04-25T04:12:40;10.60;;;3.40;;
14080;SDS011;7116;52.152;5.392;2023-04-25T04:15:05;14.00;;;3.70;;
14080;SDS011;7116;52.152;5.392;2023-04-25T04:17:31;9.15;;;4.30;;
14080;SDS011;7116;52.152;5.392;2023-04-25T04:19:56;11.33;;;3.87;;
14080;SDS011;7116;52.152;5.392;2023-04-25T04:22:22;10.73;;;3.23;;
14080;SDS011;7116;52.152;5.392;2023-04-25T04:24:48;10.57;;;3.10;;
14080;SDS011;7116;52.152;5.392;2023-04-25T04:27:14;10.68;;;3.22;;
14080;SDS011;7116;52.152;5.392;2023-04-25T04:29:40;10.90;;;3.60;;
14080;SDS011;7116;52.152;5.392;2023-04-25T04:32:05;7.37;;;2.80;;
14080;SDS011;7116;52.152;5.392;2023-04-25T04:34:30;9.03;;;3.20;;
14080;SDS011;7116;52.152;5.392;2023-04-25T04:36:56;10.63;;;3.53;;
14080;SDS011;7116;52.152;5.392;2023-04-25T04:39:21;10.10;;;3.80;;
14080;SDS011;7116;52.152;5.392;2023-04-25T04:41:47;8.57;;;2.92;;
14080;SDS011;7116;52.152;5.392;2023-04-25T04:44:12;8.97;;;3.53;;
14080;SDS011;7116;52.152;5.392;2023-04-25T04:46:41;6.43;;;3.03;;
14080;SDS011;7116;52.152;5.392;2023-04-25T04:49:10;9.00;;;3.80;;
14080;SDS011;7116;52.152;5.392;2023-04-25T04:51:35;8.50;;;3.13;;
14080;SDS011;7116;52.152;5.392;2023-04-25T04:54:01;12.60;;;3.78;;
14080;SDS011;7116;52.152;5.392;2023-04-25T04:56:27;8.80;;;2.77;;
14080;SDS011;7116;52.152;5.392;2023-04-25T04:58:53;11.95;;;3.00;;
14080;SDS011;7116;52.152;5.392;2023-04-25T05:01:23;10.35;;;3.35;;
14080;SDS011;7116;52.152;5.392;2023-04-25T05:03:48;7.40;;;3.58;;
14080;SDS011;7116;52.152;5.392;2023-04-25T05:06:13;10.53;;;3.63;;
14080;SDS011;7116;52.152;5.392;2023-04-25T05:08:38;6.87;;;2.50;;
14080;SDS011;7116;52.152;5.392;2023-04-25T05:11:04;10.67;;;3.70;;
14080;SDS011;7116;52.152;5.392;2023-04-25T05:13:29;8.47;;;3.27;;
14080;SDS011;7116;52.152;5.392;2023-04-25T05:15:55;12.57;;;3.70;;
14080;SDS011;7116;52.152;5.392;2023-04-25T05:18:20;7.93;;;2.87;;
14080;SDS011;7116;52.152;5.392;2023-04-25T05:20:45;9.40;;;3.27;;
14080;SDS011;7116;52.152;5.392;2023-04-25T05:23:12;10.80;;;3.53;;
14080;SDS011;7116;52.152;5.392;2023-04-25T05:25:38;7.33;;;2.90;;
14080;SDS011;7116;52.152;5.392;2023-04-25T05:28:03;8.13;;;3.00;;
14080;SDS011;7116;52.152;5.392;2023-04-25T05:30:28;7.97;;;3.27;;
14080;SDS011;7116;52.152;5.392;2023-04-25T05:32:53;11.67;;;3.17;;
14080;SDS011;7116;52.152;5.392;2023-04-25T05:35:19;8.40;;;3.93;;
14080;SDS011;7116;52.152;5.392;2023-04-25T05:37:44;9.60;;;3.60;;
14080;SDS011;7116;52.152;5.392;2023-04-25T05:40:09;8.33;;;2.90;;
14080;SDS011;7116;52.152;5.392;2023-04-25T05:42:35;7.40;;;2.90;;
14080;SDS011;7116;52.152;5.392;2023-04-25T05:45:00;8.27;;;2.80;;
14080;SDS011;7116;52.152;5.392;2023-04-25T05:47:25;6.93;;;3.57;;
14080;SDS011;7116;52.152;5.392;2023-04-25T05:49:53;9.82;;;3.22;;
14080;SDS011;7116;52.152;5.392;2023-04-25T05:52:18;7.33;;;2.80;;
14080;SDS011;7116;52.152;5.392;2023-04-25T05:54:43;6.40;;;3.27;;
14080;SDS011;7116;52.152;5.392;2023-04-25T05:57:17;9.67;;;3.43;;
14080;SDS011;7116;52.152;5.392;2023-04-25T05:59:42;10.07;;;3.13;;
14080;SDS011;7116;52.152;5.392;2023-04-25T06:02:08;11.60;;;3.40;;
14080;SDS011;7116;52.152;5.392;2023-04-25T06:04:33;6.87;;;3.00;;
14080;SDS011;7116;52.152;5.392;2023-04-25T06:06:58;9.53;;;3.30;;
14080;SDS011;7116;52.152;5.392;2023-04-25T06:09:23;5.77;;;3.77;;
14080;SDS011;7116;52.152;5.392;2023-04-25T06:11:48;7.97;;;3.10;;
14080;SDS011;7116;52.152;5.392;2023-04-25T06:14:14;10.00;;;3.50;;
14080;SDS011;7116;52.152;5.392;2023-04-25T06:16:42;7.63;;;2.92;;
14080;SDS011;7116;52.152;5.392;2023-04-25T06:19:07;11.80;;;3.57;;
14080;SDS011;7116;52.152;5.392;2023-04-25T06:21:34;7.28;;;3.33;;
14080;SDS011;7116;52.152;5.392;2023-04-25T06:24:00;11.10;;;3.07;;
14080;SDS011;7116;52.152;5.392;2023-04-25T06:26:25;6.33;;;2.80;;
14080;SDS011;7116;52.152;5.392;2023-04-25T06:28:50;9.90;;;3.53;;
14080;SDS011;7116;52.152;5.392;2023-04-25T06:31:15;8.87;;;3.07;;
14080;SDS011;7116;52.152;5.392;2023-04-25T06:33:40;11.30;;;3.07;;
14080;SDS011;7116;52.152;5.392;2023-04-25T06:36:06;9.87;;;3.67;;
14080;SDS011;7116;52.152;5.392;2023-04-25T06:38:31;11.63;;;2.87;;
14080;SDS011;7116;52.152;5.392;2023-04-25T06:40:56;8.30;;;3.37;;
14080;SDS011;7116;52.152;5.392;2023-04-25T06:43:21;10.20;;;2.87;;
14080;SDS011;7116;52.152;5.392;2023-04-25T06:45:46;11.07;;;3.60;;
14080;SDS011;7116;52.152;5.392;2023-04-25T06:48:12;7.50;;;3.20;;
14080;SDS011;7116;52.152;5.392;2023-04-25T06:50:37;7.97;;;2.90;;
14080;SDS011;7116;52.152;5.392;2023-04-25T06:53:02;9.50;;;3.20;;
14080;SDS011;7116;52.152;5.392;2023-04-25T06:55:27;6.47;;;3.03;;
14080;SDS011;7116;52.152;5.392;2023-04-25T06:57:52;6.40;;;3.00;;
14080;SDS011;7116;52.152;5.392;2023-04-25T07:00:18;11.47;;;2.90;;
14080;SDS011;7116;52.152;5.392;2023-04-25T07:02:43;7.37;;;2.83;;
14080;SDS011;7116;52.152;5.392;2023-04-25T07:05:08;7.87;;;3.13;;
14080;SDS011;7116;52.152;5.392;2023-04-25T07:07:33;8.00;;;2.63;;
14080;SDS011;7116;52.152;5.392;2023-04-25T07:09:59;5.97;;;3.00;;
14080;SDS011;7116;52.152;5.392;2023-04-25T07:12:24;9.70;;;2.60;;
14080;SDS011;7116;52.152;5.392;2023-04-25T07:14:49;7.90;;;2.83;;
14080;SDS011;7116;52.152;5.392;2023-04-25T07:17:14;10.03;;;3.00;;
14080;SDS011;7116;52.152;5.392;2023-04-25T07:19:40;9.50;;;2.63;;
14080;SDS011;7116;52.152;5.392;2023-04-25T07:22:06;10.00;;;2.93;;
14080;SDS011;7116;52.152;5.392;2023-04-25T07:24:31;10.33;;;3.07;;
14080;SDS011;7116;52.152;5.392;2023-04-25T07:26:56;5.27;;;2.60;;
14080;SDS011;7116;52.152;5.392;2023-04-25T07:29:22;7.70;;;2.50;;
14080;SDS011;7116;52.152;5.392;2023-04-25T07:31:48;8.07;;;2.67;;
14080;SDS011;7116;52.152;5.392;2023-04-25T07:34:13;9.83;;;3.20;;
14080;SDS011;7116;52.152;5.392;2023-04-25T07:36:38;14.70;;;3.50;;
14080;SDS011;7116;52.152;5.392;2023-04-25T07:39:03;6.67;;;2.40;;
14080;SDS011;7116;52.152;5.392;2023-04-25T07:41:28;6.00;;;2.67;;
14080;SDS011;7116;52.152;5.392;2023-04-25T07:43:54;5.87;;;2.43;;
14080;SDS011;7116;52.152;5.392;2023-04-25T07:46:19;8.37;;;2.63;;
14080;SDS011;7116;52.152;5.392;2023-04-25T07:48:44;11.17;;;2.70;;
14080;SDS011;7116;52.152;5.392;2023-04-25T07:51:09;5.97;;;2.60;;
14080;SDS011;7116;52.152;5.392;2023-04-25T07:53:35;6.17;;;2.90;;
14080;SDS011;7116;52.152;5.392;2023-04-25T07:56:02;6.93;;;2.78;;
14080;SDS011;7116;52.152;5.392;2023-04-25T07:58:27;7.63;;;2.90;;
14080;SDS011;7116;52.152;5.392;2023-04-25T08:00:52;5.43;;;2.50;;
14080;SDS011;7116;52.152;5.392;2023-04-25T08:03:18;10.40;;;2.63;;
14080;SDS011;7116;52.152;5.392;2023-04-25T08:05:43;7.00;;;2.13;;
14080;SDS011;7116;52.152;5.392;2023-04-25T08:08:08;6.63;;;2.80;;
14080;SDS011;7116;52.152;5.392;2023-04-25T08:10:33;6.33;;;2.17;;
14080;SDS011;7116;52.152;5.392;2023-04-25T08:12:59;5.73;;;2.47;;
14080;SDS011;7116;52.152;5.392;2023-04-25T08:15:24;6.83;;;2.90;;
14080;SDS011;7116;52.152;5.392;2023-04-25T08:17:50;9.73;;;2.58;;
14080;SDS011;7116;52.152;5.392;2023-04-25T08:20:15;6.77;;;2.87;;
14080;SDS011;7116;52.152;5.392;2023-04-25T08:22:40;7.13;;;2.80;;
14080;SDS011;7116;52.152;5.392;2023-04-25T08:25:06;7.53;;;2.50;;
14080;SDS011;7116;52.152;5.392;2023-04-25T08:27:31;6.87;;;2.80;;
14080;SDS011;7116;52.152;5.392;2023-04-25T08:29:56;7.23;;;2.67;;
14080;SDS011;7116;52.152;5.392;2023-04-25T08:32:22;5.35;;;2.63;;
14080;SDS011;7116;52.152;5.392;2023-04-25T08:34:48;10.70;;;3.83;;
14080;SDS011;7116;52.152;5.392;2023-04-25T08:37:13;6.00;;;2.77;;
14080;SDS011;7116;52.152;5.392;2023-04-25T08:39:38;8.80;;;2.40;;
14080;SDS011;7116;52.152;5.392;2023-04-25T08:42:05;6.10;;;2.77;;
14080;SDS011;7116;52.152;5.392;2023-04-25T08:44:32;7.90;;;2.60;;
14080;SDS011;7116;52.152;5.392;2023-04-25T08:46:58;8.02;;;2.80;;
14080;SDS011;7116;52.152;5.392;2023-04-25T08:49:23;7.53;;;2.90;;
14080;SDS011;7116;52.152;5.392;2023-04-25T08:51:49;7.63;;;2.30;;
14080;SDS011;7116;52.152;5.392;2023-04-25T08:54:15;6.75;;;2.42;;
14080;SDS011;7116;52.152;5.392;2023-04-25T08:56:41;9.40;;;2.43;;
14080;SDS011;7116;52.152;5.392;2023-04-25T08:59:08;10.55;;;2.55;;
14080;SDS011;7116;52.152;5.392;2023-04-25T09:01:34;3.77;;;1.50;;
14080;SDS011;7116;52.152;5.392;2023-04-25T09:04:00;8.25;;;2.60;;
14080;SDS011;7116;52.152;5.392;2023-04-25T09:06:26;8.63;;;2.20;;
14080;SDS011;7116;52.152;5.392;2023-04-25T09:08:52;7.82;;;2.42;;
14080;SDS011;7116;52.152;5.392;2023-04-25T09:11:17;8.87;;;2.30;;
14080;SDS011;7116;52.152;5.392;2023-04-25T09:13:43;10.33;;;2.20;;
14080;SDS011;7116;52.152;5.392;2023-04-25T09:16:08;4.70;;;2.20;;
14080;SDS011;7116;52.152;5.392;2023-04-25T09:18:35;5.60;;;2.10;;
14080;SDS011;7116;52.152;5.392;2023-04-25T09:21:07;6.75;;;2.38;;
14080;SDS011;7116;52.152;5.392;2023-04-25T09:23:40;5.88;;;2.05;;
14080;SDS011;7116;52.152;5.392;2023-04-25T09:26:06;14.10;;;3.25;;
14080;SDS011;7116;52.152;5.392;2023-04-25T09:28:31;4.10;;;2.07;;
14080;SDS011;7116;52.152;5.392;2023-04-25T09:30:57;5.93;;;2.22;;
14080;SDS011;7116;52.152;5.392;2023-04-25T09:33:29;8.80;;;2.67;;
14080;SDS011;7116;52.152;5.392;2023-04-25T09:35:56;7.32;;;2.42;;
14080;SDS011;7116;52.152;5.392;2023-04-25T09:38:25;8.47;;;2.70;;
14080;SDS011;7116;52.152;5.392;2023-04-25T09:40:51;5.03;;;2.00;;
14080;SDS011;7116;52.152;5.392;2023-04-25T09:43:20;9.75;;;2.42;;
14080;SDS011;7116;52.152;5.392;2023-04-25T09:45:48;6.32;;;2.25;;
14080;SDS011;7116;52.152;5.392;2023-04-25T09:48:18;5.80;;;2.40;;
14080;SDS011;7116;52.152;5.392;2023-04-25T09:50:44;6.32;;;2.65;;
14080;SDS011;7116;52.152;5.392;2023-04-25T09:53:09;4.90;;;2.00;;
14080;SDS011;7116;52.152;5.392;2023-04-25T09:55:35;7.63;;;1.98;;
14080;SDS011;7116;52.152;5.392;2023-04-25T09:58:04;4.53;;;2.40;;
14080;SDS011;7116;52.152;5.392;2023-04-25T10:00:30;6.43;;;2.08;;
14080;SDS011;7116;52.152;5.392;2023-04-25T10:02:55;6.13;;;2.45;;
14080;SDS011;7116;52.152;5.392;2023-04-25T10:05:21;5.47;;;2.10;;
14080;SDS011;7116;52.152;5.392;2023-04-25T10:07:47;3.95;;;2.28;;
14080;SDS011;7116;52.152;5.392;2023-04-25T10:10:13;6.63;;;2.43;;
14080;SDS011;7116;52.152;5.392;2023-04-25T10:12:38;4.63;;;2.30;;
14080;SDS011;7116;52.152;5.392;2023-04-25T10:15:05;8.77;;;2.90;;
14080;SDS011;7116;52.152;5.392;2023-04-25T10:17:31;5.65;;;2.10;;
14080;SDS011;7116;52.152;5.392;2023-04-25T10:19:57;5.18;;;1.77;;
14080;SDS011;7116;52.152;5.392;2023-04-25T10:22:26;3.97;;;1.80;;
14080;SDS011;7116;52.152;5.392;2023-04-25T10:24:53;4.93;;;2.13;;
14080;SDS011;7116;52.152;5.392;2023-04-25T10:27:18;7.73;;;2.10;;
14080;SDS011;7116;52.152;5.392;2023-04-25T10:29:44;12.90;;;2.95;;
14080;SDS011;7116;52.152;5.392;2023-04-25T10:32:09;4.97;;;1.93;;
14080;SDS011;7116;52.152;5.392;2023-04-25T10:34:40;7.75;;;2.50;;
14080;SDS011;7116;52.152;5.392;2023-04-25T10:37:08;5.57;;;2.43;;
14080;SDS011;7116;52.152;5.392;2023-04-25T10:39:33;5.72;;;2.13;;
14080;SDS011;7116;52.152;5.392;2023-04-25T10:41:59;5.37;;;2.40;;
14080;SDS011;7116;52.152;5.392;2023-04-25T10:44:30;5.73;;;2.10;;
14080;SDS011;7116;52.152;5.392;2023-04-25T10:46:56;6.28;;;1.92;;
14080;SDS011;7116;52.152;5.392;2023-04-25T10:49:29;16.02;;;3.10;;
14080;SDS011;7116;52.152;5.392;2023-04-25T10:54:40;6.35;;;1.88;;
14080;SDS011;7116;52.152;5.392;2023-04-25T10:57:05;18.63;;;2.80;;
14080;SDS011;7116;52.152;5.392;2023-04-25T10:59:30;6.00;;;2.30;;
14080;SDS011;7116;52.152;5.392;2023-04-25T11:01:55;3.83;;;1.93;;
14080;SDS011;7116;52.152;5.392;2023-04-25T11:09:20;4.68;;;2.63;;
14080;SDS011;7116;52.152;5.392;2023-04-25T11:11:54;7.97;;;2.10;;
14080;SDS011;7116;52.152;5.392;2023-04-25T11:14:20;5.53;;;2.10;;
14080;SDS011;7116;52.152;5.392;2023-04-25T11:16:45;8.30;;;2.67;;
14080;SDS011;7116;52.152;5.392;2023-04-25T11:19:11;9.07;;;2.87;;
14080;SDS011;7116;52.152;5.392;2023-04-25T11:21:36;6.67;;;3.17;;
14080;SDS011;7116;52.152;5.392;2023-04-25T11:24:01;6.77;;;3.13;;
14080;SDS011;7116;52.152;5.392;2023-04-25T11:26:27;8.10;;;2.33;;
14080;SDS011;7116;52.152;5.392;2023-04-25T11:28:56;6.43;;;2.57;;
14080;SDS011;7116;52.152;5.392;2023-04-25T11:31:21;5.80;;;2.30;;
14080;SDS011;7116;52.152;5.392;2023-04-25T11:33:47;6.70;;;2.60;;
14080;SDS011;7116;52.152;5.392;2023-04-25T11:36:12;10.10;;;2.63;;
14080;SDS011;7116;52.152;5.392;2023-04-25T11:38:37;14.20;;;3.43;;
14080;SDS011;7116;52.152;5.392;2023-04-25T11:41:02;6.77;;;2.10;;
14080;SDS011;7116;52.152;5.392;2023-04-25T11:43:28;11.60;;;2.90;;
14080;SDS011;7116;52.152;5.392;2023-04-25T11:45:55;5.70;;;2.17;;
14080;SDS011;7116;52.152;5.392;2023-04-25T11:48:20;5.38;;;2.30;;
14080;SDS011;7116;52.152;5.392;2023-04-25T11:50:46;7.93;;;2.37;;
14080;SDS011;7116;52.152;5.392;2023-04-25T11:53:21;6.75;;;2.50;;
14080;SDS011;7116;52.152;5.392;2023-04-25T11:55:49;8.02;;;2.60;;
14080;SDS011;7116;52.152;5.392;2023-04-25T11:58:15;4.33;;;2.13;;
14080;SDS011;7116;52.152;5.392;2023-04-25T12:00:41;3.97;;;2.33;;
14080;SDS011;7116;52.152;5.392;2023-04-25T12:03:08;7.50;;;2.45;;
14080;SDS011;7116;52.152;5.392;2023-04-25T12:05:34;3.33;;;1.90;;
14080;SDS011;7116;52.152;5.392;2023-04-25T12:08:12;7.32;;;2.40;;
14080;SDS011;7116;52.152;5.392;2023-04-25T12:10:38;4.77;;;2.50;;
14080;SDS011;7116;52.152;5.392;2023-04-25T12:16:02;7.13;;;2.95;;
14080;SDS011;7116;52.152;5.392;2023-04-25T12:18:27;4.70;;;2.60;;
14080;SDS011;7116;52.152;5.392;2023-04-25T12:20:53;5.30;;;2.20;;
14080;SDS011;7116;52.152;5.392;2023-04-25T12:23:24;6.72;;;2.50;;
14080;SDS011;7116;52.152;5.392;2023-04-25T12:25:51;4.37;;;1.90;;
14080;SDS011;7116;52.152;5.392;2023-04-25T12:28:20;6.35;;;2.80;;
14080;SDS011;7116;52.152;5.392;2023-04-25T12:30:51;7.75;;;2.50;;
14080;SDS011;7116;52.152;5.392;2023-04-25T12:33:17;6.03;;;2.50;;
14080;SDS011;7116;52.152;5.392;2023-04-25T12:35:42;5.30;;;2.63;;
14080;SDS011;7116;52.152;5.392;2023-04-25T12:38:07;10.10;;;3.67;;
14080;SDS011;7116;52.152;5.392;2023-04-25T12:40:32;5.43;;;2.17;;
14080;SDS011;7116;52.152;5.392;2023-04-25T12:42:57;3.13;;;2.17;;
14080;SDS011;7116;52.152;5.392;2023-04-25T12:45:23;5.37;;;2.30;;
14080;SDS011;7116;52.152;5.392;2023-04-25T12:47:48;10.87;;;2.37;;
14080;SDS011;7116;52.152;5.392;2023-04-25T12:50:13;6.07;;;1.77;;
14080;SDS011;7116;52.152;5.392;2023-04-25T12:52:38;5.80;;;2.50;;
14080;SDS011;7116;52.152;5.392;2023-04-25T12:55:03;3.57;;;1.90;;
14080;SDS011;7116;52.152;5.392;2023-04-25T12:57:29;7.55;;;2.08;;
14080;SDS011;7116;52.152;5.392;2023-04-25T12:59:54;6.50;;;2.23;;
14080;SDS011;7116;52.152;5.392;2023-04-25T13:02:19;8.50;;;2.07;;
14080;SDS011;7116;52.152;5.392;2023-04-25T13:04:44;6.83;;;1.70;;
14080;SDS011;7116;52.152;5.392;2023-04-25T13:07:10;4.93;;;2.00;;
14080;SDS011;7116;52.152;5.392;2023-04-25T13:09:35;7.67;;;2.33;;
14080;SDS011;7116;52.152;5.392;2023-04-25T13:12:00;3.63;;;2.10;;
14080;SDS011;7116;52.152;5.392;2023-04-25T13:14:26;5.47;;;2.17;;
14080;SDS011;7116;52.152;5.392;2023-04-25T13:16:51;4.43;;;2.00;;
14080;SDS011;7116;52.152;5.392;2023-04-25T13:19:16;4.40;;;2.40;;
14080;SDS011;7116;52.152;5.392;2023-04-25T13:21:42;6.63;;;2.93;;
14080;SDS011;7116;52.152;5.392;2023-04-25T13:24:07;4.57;;;2.77;;
14080;SDS011;7116;52.152;5.392;2023-04-25T13:26:32;5.57;;;2.43;;
14080;SDS011;7116;52.152;5.392;2023-04-25T13:28:57;7.13;;;2.60;;
14080;SDS011;7116;52.152;5.392;2023-04-25T13:31:23;12.83;;;2.73;;
14080;SDS011;7116;52.152;5.392;2023-04-25T13:33:48;3.50;;;1.80;;
14080;SDS011;7116;52.152;5.392;2023-04-25T13:36:13;6.07;;;2.60;;
14080;SDS011;7116;52.152;5.392;2023-04-25T13:38:38;3.70;;;2.00;;
14080;SDS011;7116;52.152;5.392;2023-04-25T13:41:04;5.30;;;2.53;;
14080;SDS011;7116;52.152;5.392;2023-04-25T13:43:31;7.22;;;2.20;;
14080;SDS011;7116;52.152;5.392;2023-04-25T13:45:57;11.73;;;2.40;;
14080;SDS011;7116;52.152;5.392;2023-04-25T13:48:23;5.67;;;2.40;;
14080;SDS011;7116;52.152;5.392;2023-04-25T13:50:49;7.55;;;2.72;;
14080;SDS011;7116;52.152;5.392;2023-04-25T13:53:14;4.07;;;2.10;;
14080;SDS011;7116;52.152;5.392;2023-04-25T13:55:39;5.30;;;2.80;;
14080;SDS011;7116;52.152;5.392;2023-04-25T13:58:04;7.27;;;2.90;;
14080;SDS011;7116;52.152;5.392;2023-04-25T14:00:33;6.75;;;2.55;;
14080;SDS011;7116;52.152;5.392;2023-04-25T14:02:58;5.20;;;2.55;;
14080;SDS011;7116;52.152;5.392;2023-04-25T14:05:23;5.97;;;2.30;;
14080;SDS011;7116;52.152;5.392;2023-04-25T14:07:48;5.07;;;2.50;;
14080;SDS011;7116;52.152;5.392;2023-04-25T14:10:14;5.07;;;2.10;;
14080;SDS011;7116;52.152;5.392;2023-04-25T14:12:39;5.57;;;2.30;;
14080;SDS011;7116;52.152;5.392;2023-04-25T14:15:05;6.20;;;3.03;;
14080;SDS011;7116;52.152;5.392;2023-04-25T14:17:30;9.45;;;2.35;;
14080;SDS011;7116;52.152;5.392;2023-04-25T14:19:55;4.00;;;2.10;;
14080;SDS011;7116;52.152;5.392;2023-04-25T14:22:20;4.90;;;2.20;;
14080;SDS011;7116;52.152;5.392;2023-04-25T14:24:46;7.05;;;2.80;;
14080;SDS011;7116;52.152;5.392;2023-04-25T14:27:11;5.70;;;2.30;;
14080;SDS011;7116;52.152;5.392;2023-04-25T14:29:36;3.93;;;2.30;;
14080;SDS011;7116;52.152;5.392;2023-04-25T14:32:02;5.23;;;2.50;;
14080;SDS011;7116;52.152;5.392;2023-04-25T14:34:27;10.30;;;2.43;;
14080;SDS011;7116;52.152;5.392;2023-04-25T14:36:53;5.33;;;3.07;;
14080;SDS011;7116;52.152;5.392;2023-04-25T14:39:18;7.15;;;2.30;;
14080;SDS011;7116;52.152;5.392;2023-04-25T14:41:43;5.50;;;2.87;;
14080;SDS011;7116;52.152;5.392;2023-04-25T14:44:10;4.23;;;2.57;;
14080;SDS011;7116;52.152;5.392;2023-04-25T14:46:35;3.10;;;2.22;;
14080;SDS011;7116;52.152;5.392;2023-04-25T14:49:01;4.07;;;3.23;;
14080;SDS011;7116;52.152;5.392;2023-04-25T14:51:26;6.37;;;2.70;;
14080;SDS011;7116;52.152;5.392;2023-04-25T14:53:51;5.47;;;2.10;;
14080;SDS011;7116;52.152;5.392;2023-04-25T14:56:17;5.50;;;2.17;;
14080;SDS011;7116;52.152;5.392;2023-04-25T14:58:42;5.83;;;2.13;;
14080;SDS011;7116;52.152;5.392;2023-04-25T15:01:07;7.00;;;2.80;;
14080;SDS011;7116;52.152;5.392;2023-04-25T15:03:33;5.10;;;2.53;;
14080;SDS011;7116;52.152;5.392;2023-04-25T15:05:58;4.80;;;2.07;;
14080;SDS011;7116;52.152;5.392;2023-04-25T15:08:23;5.10;;;2.23;;